sensor_id;sensor_type;location;lat;lon;timestamp;temperature;humidity
5554;DHT22;2800;49.528;8.666;2022-08-19T00:01:09;21.30;99.90
5554;DHT22;2800;49.528;8.666;2022-08-19T00:03:35;21.20;99.90
5554;DHT22;2800;49.528;8.666;2022-08-19T00:06:01;21.20;99.90
5554;DHT22;2800;49.528;8.666;2022-08-19T00:08:26;21.10;99.90
5554;DHT22;2800;49.528;8.666;2022-08-19T00:10:52;21.10;99.90
5554;DHT22;2800;49.528;8.666;2022-08-19T00:13:17;21.20;99.90
5554;DHT22;2800;49.528;8.666;2022-08-19T00:15:43;21.20;99.90
5554;DHT22;2800;49.528;8.666;2022-08-19T00:18:10;21.20;99.90
5554;DHT22;2800;49.528;8.666;2022-08-19T00:20:35;21.30;99.90
5554;DHT22;2800;49.528;8.666;2022-08-19T00:23:01;21.30;99.90
5554;DHT22;2800;49.528;8.666;2022-08-19T00:25:29;21.40;99.90
5554;DHT22;2800;49.528;8.666;2022-08-19T00:27:55;21.30;99.90
5554;DHT22;2800;49.528;8.666;2022-08-19T00:30:21;21.30;99.90
5554;DHT22;2800;49.528;8.666;2022-08-19T00:32:46;21.20;99.90
5554;DHT22;2800;49.528;8.666;2022-08-19T00:35:12;21.20;99.90
5554;DHT22;2800;49.528;8.666;2022-08-19T00:37:38;21.30;99.90
5554;DHT22;2800;49.528;8.666;2022-08-19T00:40:09;21.20;99.90
5554;DHT22;2800;49.528;8.666;2022-08-19T00:42:35;21.20;99.90
5554;DHT22;2800;49.528;8.666;2022-08-19T00:45:02;21.20;99.90
5554;DHT22;2800;49.528;8.666;2022-08-19T00:47:27;21.20;99.90
5554;DHT22;2800;49.528;8.666;2022-08-19T00:49:56;21.10;99.90
5554;DHT22;2800;49.528;8.666;2022-08-19T00:52:33;21.20;99.90
5554;DHT22;2800;49.528;8.666;2022-08-19T00:55:00;21.20;99.90
5554;DHT22;2800;49.528;8.666;2022-08-19T00:57:31;21.20;99.90
5554;DHT22;2800;49.528;8.666;2022-08-19T00:59:58;21.20;99.90
5554;DHT22;2800;49.528;8.666;2022-08-19T01:02:25;21.10;99.90
5554;DHT22;2800;49.528;8.666;2022-08-19T01:04:51;21.10;99.90
5554;DHT22;2800;49.528;8.666;2022-08-19T01:07:17;21.10;99.90
5554;DHT22;2800;49.528;8.666;2022-08-19T01:09:43;21.10;99.90
5554;DHT22;2800;49.528;8.666;2022-08-19T01:12:09;21.00;99.90
5554;DHT22;2800;49.528;8.666;2022-08-19T01:14:36;21.10;99.90
5554;DHT22;2800;49.528;8.666;2022-08-19T01:17:03;21.10;99.90
5554;DHT22;2800;49.528;8.666;2022-08-19T01:19:40;21.10;99.90
5554;DHT22;2800;49.528;8.666;2022-08-19T01:22:16;21.10;99.90
5554;DHT22;2800;49.528;8.666;2022-08-19T01:24:44;21.10;99.90
5554;DHT22;2800;49.528;8.666;2022-08-19T01:27:10;21.10;99.90
5554;DHT22;2800;49.528;8.666;2022-08-19T01:29:39;21.10;99.90
5554;DHT22;2800;49.528;8.666;2022-08-19T01:32:05;21.10;99.90
5554;DHT22;2800;49.528;8.666;2022-08-19T01:34:31;21.00;99.90
5554;DHT22;2800;49.528;8.666;2022-08-19T01:36:57;21.00;99.90
5554;DHT22;2800;49.528;8.666;2022-08-19T01:39:24;21.00;99.90
5554;DHT22;2800;49.528;8.666;2022-08-19T01:41:51;21.00;99.90
5554;DHT22;2800;49.528;8.666;2022-08-19T01:44:19;21.00;99.90
5554;DHT22;2800;49.528;8.666;2022-08-19T01:46:48;21.00;99.90
5554;DHT22;2800;49.528;8.666;2022-08-19T01:49:16;21.00;99.90
5554;DHT22;2800;49.528;8.666;2022-08-19T01:51:42;21.00;99.90
5554;DHT22;2800;49.528;8.666;2022-08-19T01:54:10;21.00;99.90
5554;DHT22;2800;49.528;8.666;2022-08-19T01:56:37;21.00;99.90
5554;DHT22;2800;49.528;8.666;2022-08-19T01:59:10;21.10;99.90
5554;DHT22;2800;49.528;8.666;2022-08-19T02:01:37;21.10;99.90
5554;DHT22;2800;49.528;8.666;2022-08-19T02:04:03;21.00;99.90
5554;DHT22;2800;49.528;8.666;2022-08-19T02:06:29;21.00;99.90
5554;DHT22;2800;49.528;8.666;2022-08-19T02:08:55;21.00;99.90
5554;DHT22;2800;49.528;8.666;2022-08-19T02:11:23;20.90;99.90
5554;DHT22;2800;49.528;8.666;2022-08-19T02:13:49;20.70;99.90
5554;DHT22;2800;49.528;8.666;2022-08-19T02:16:17;20.80;99.90
5554;DHT22;2800;49.528;8.666;2022-08-19T02:18:43;20.80;99.90
5554;DHT22;2800;49.528;8.666;2022-08-19T02:21:09;20.80;99.90
5554;DHT22;2800;49.528;8.666;2022-08-19T02:23:34;20.70;99.90
5554;DHT22;2800;49.528;8.666;2022-08-19T02:26:00;20.80;99.90
5554;DHT22;2800;49.528;8.666;2022-08-19T02:28:26;20.70;99.90
5554;DHT22;2800;49.528;8.666;2022-08-19T02:30:52;20.70;99.90
5554;DHT22;2800;49.528;8.666;2022-08-19T02:33:17;20.60;99.90
5554;DHT22;2800;49.528;8.666;2022-08-19T02:35:45;20.40;99.90
5554;DHT22;2800;49.528;8.666;2022-08-19T02:38:10;20.50;99.90
5554;DHT22;2800;49.528;8.666;2022-08-19T02:40:57;20.50;99.90
5554;DHT22;2800;49.528;8.666;2022-08-19T02:43:24;20.50;99.90
5554;DHT22;2800;49.528;8.666;2022-08-19T02:45:51;20.50;99.90
5554;DHT22;2800;49.528;8.666;2022-08-19T02:48:21;20.50;99.90
5554;DHT22;2800;49.528;8.666;2022-08-19T02:50:48;20.50;99.90
5554;DHT22;2800;49.528;8.666;2022-08-19T02:53:20;20.50;99.90
5554;DHT22;2800;49.528;8.666;2022-08-19T02:55:47;20.40;99.90
5554;DHT22;2800;49.528;8.666;2022-08-19T02:58:14;20.50;99.90
5554;DHT22;2800;49.528;8.666;2022-08-19T03:00:50;20.40;99.90
5554;DHT22;2800;49.528;8.666;2022-08-19T03:03:17;20.50;99.90
5554;DHT22;2800;49.528;8.666;2022-08-19T03:05:43;20.40;99.90
5554;DHT22;2800;49.528;8.666;2022-08-19T03:08:10;20.50;99.90
5554;DHT22;2800;49.528;8.666;2022-08-19T03:10:46;20.40;99.90
5554;DHT22;2800;49.528;8.666;2022-08-19T03:13:14;20.40;99.90
5554;DHT22;2800;49.528;8.666;2022-08-19T03:15:42;20.40;99.90
5554;DHT22;2800;49.528;8.666;2022-08-19T03:18:08;20.30;99.90
5554;DHT22;2800;49.528;8.666;2022-08-19T03:20:43;20.40;99.90
5554;DHT22;2800;49.528;8.666;2022-08-19T03:23:09;20.30;99.90
5554;DHT22;2800;49.528;8.666;2022-08-19T03:25:39;20.10;99.90
5554;DHT22;2800;49.528;8.666;2022-08-19T03:28:06;19.90;99.90
5554;DHT22;2800;49.528;8.666;2022-08-19T03:30:32;19.80;99.90
5554;DHT22;2800;49.528;8.666;2022-08-19T03:32:58;19.80;99.90
5554;DHT22;2800;49.528;8.666;2022-08-19T03:35:23;19.90;99.90
5554;DHT22;2800;49.528;8.666;2022-08-19T03:37:49;19.90;99.90
5554;DHT22;2800;49.528;8.666;2022-08-19T03:40:14;20.00;99.90
5554;DHT22;2800;49.528;8.666;2022-08-19T03:42:40;20.00;99.90
5554;DHT22;2800;49.528;8.666;2022-08-19T03:45:07;20.00;99.90
5554;DHT22;2800;49.528;8.666;2022-08-19T03:47:33;20.00;99.90
5554;DHT22;2800;49.528;8.666;2022-08-19T03:49:59;19.80;99.90
5554;DHT22;2800;49.528;8.666;2022-08-19T03:52:24;19.70;99.90
5554;DHT22;2800;49.528;8.666;2022-08-19T03:54:50;19.60;99.90
5554;DHT22;2800;49.528;8.666;2022-08-19T03:57:15;19.60;99.90
5554;DHT22;2800;49.528;8.666;2022-08-19T03:59:41;19.60;99.90
5554;DHT22;2800;49.528;8.666;2022-08-19T04:02:10;19.70;99.90
5554;DHT22;2800;49.528;8.666;2022-08-19T04:04:37;19.70;99.90
5554;DHT22;2800;49.528;8.666;2022-08-19T04:07:03;19.80;99.90
5554;DHT22;2800;49.528;8.666;2022-08-19T04:09:29;19.70;99.90
5554;DHT22;2800;49.528;8.666;2022-08-19T04:11:56;19.80;99.90
5554;DHT22;2800;49.528;8.666;2022-08-19T04:14:26;19.80;99.90
5554;DHT22;2800;49.528;8.666;2022-08-19T04:16:52;19.80;99.90
5554;DHT22;2800;49.528;8.666;2022-08-19T04:19:18;19.70;99.90
5554;DHT22;2800;49.528;8.666;2022-08-19T04:21:47;19.80;99.90
5554;DHT22;2800;49.528;8.666;2022-08-19T04:24:14;19.70;99.90
5554;DHT22;2800;49.528;8.666;2022-08-19T04:26:40;19.70;99.90
5554;DHT22;2800;49.528;8.666;2022-08-19T04:29:10;19.70;99.90
5554;DHT22;2800;49.528;8.666;2022-08-19T04:31:36;19.70;99.90
5554;DHT22;2800;49.528;8.666;2022-08-19T04:34:06;19.70;99.90
5554;DHT22;2800;49.528;8.666;2022-08-19T04:36:35;19.70;99.90
5554;DHT22;2800;49.528;8.666;2022-08-19T04:39:06;19.70;99.90
5554;DHT22;2800;49.528;8.666;2022-08-19T04:41:33;19.70;99.90
5554;DHT22;2800;49.528;8.666;2022-08-19T04:44:17;19.70;99.90
5554;DHT22;2800;49.528;8.666;2022-08-19T04:46:44;19.70;99.90
5554;DHT22;2800;49.528;8.666;2022-08-19T04:49:10;19.70;99.90
5554;DHT22;2800;49.528;8.666;2022-08-19T04:51:36;19.70;99.90
5554;DHT22;2800;49.528;8.666;2022-08-19T04:54:03;19.80;99.90
5554;DHT22;2800;49.528;8.666;2022-08-19T04:56:29;19.80;99.90
5554;DHT22;2800;49.528;8.666;2022-08-19T04:58:56;19.80;99.90
5554;DHT22;2800;49.528;8.666;2022-08-19T05:01:27;19.80;99.90
5554;DHT22;2800;49.528;8.666;2022-08-19T05:03:54;19.90;99.90
5554;DHT22;2800;49.528;8.666;2022-08-19T05:06:21;19.90;99.90
5554;DHT22;2800;49.528;8.666;2022-08-19T05:08:48;20.00;99.90
5554;DHT22;2800;49.528;8.666;2022-08-19T05:11:33;20.00;99.90
5554;DHT22;2800;49.528;8.666;2022-08-19T05:14:00;20.10;99.90
5554;DHT22;2800;49.528;8.666;2022-08-19T05:16:26;20.10;99.90
5554;DHT22;2800;49.528;8.666;2022-08-19T05:18:52;20.20;99.90
5554;DHT22;2800;49.528;8.666;2022-08-19T05:21:38;20.20;99.90
5554;DHT22;2800;49.528;8.666;2022-08-19T05:24:23;20.20;99.90
5554;DHT22;2800;49.528;8.666;2022-08-19T05:26:50;20.20;99.90
5554;DHT22;2800;49.528;8.666;2022-08-19T05:29:19;20.20;99.90
5554;DHT22;2800;49.528;8.666;2022-08-19T05:31:45;20.30;99.90
5554;DHT22;2800;49.528;8.666;2022-08-19T05:34:12;20.40;99.90
5554;DHT22;2800;49.528;8.666;2022-08-19T05:36:40;20.40;99.90
5554;DHT22;2800;49.528;8.666;2022-08-19T05:39:08;20.50;99.90
5554;DHT22;2800;49.528;8.666;2022-08-19T05:41:35;20.60;99.90
5554;DHT22;2800;49.528;8.666;2022-08-19T05:44:02;20.70;99.90
5554;DHT22;2800;49.528;8.666;2022-08-19T05:46:31;20.80;99.90
5554;DHT22;2800;49.528;8.666;2022-08-19T05:48:56;21.00;99.90
5554;DHT22;2800;49.528;8.666;2022-08-19T05:51:23;21.10;99.90
5554;DHT22;2800;49.528;8.666;2022-08-19T05:53:50;21.10;99.90
5554;DHT22;2800;49.528;8.666;2022-08-19T05:56:16;21.20;99.90
5554;DHT22;2800;49.528;8.666;2022-08-19T05:58:44;21.30;99.90
5554;DHT22;2800;49.528;8.666;2022-08-19T06:01:12;21.30;99.90
5554;DHT22;2800;49.528;8.666;2022-08-19T06:03:38;21.30;99.90
5554;DHT22;2800;49.528;8.666;2022-08-19T06:06:05;21.30;99.90
5554;DHT22;2800;49.528;8.666;2022-08-19T06:08:31;21.40;99.90
5554;DHT22;2800;49.528;8.666;2022-08-19T06:11:15;21.50;99.90
5554;DHT22;2800;49.528;8.666;2022-08-19T06:13:41;21.50;99.90
5554;DHT22;2800;49.528;8.666;2022-08-19T06:16:06;21.50;99.90
5554;DHT22;2800;49.528;8.666;2022-08-19T06:18:32;21.50;99.90
5554;DHT22;2800;49.528;8.666;2022-08-19T06:20:58;21.40;99.90
5554;DHT22;2800;49.528;8.666;2022-08-19T06:23:24;21.40;99.90
5554;DHT22;2800;49.528;8.666;2022-08-19T06:25:50;21.40;99.90
5554;DHT22;2800;49.528;8.666;2022-08-19T06:28:16;21.40;99.90
5554;DHT22;2800;49.528;8.666;2022-08-19T06:30:41;21.40;99.90
5554;DHT22;2800;49.528;8.666;2022-08-19T06:33:07;21.50;99.90
5554;DHT22;2800;49.528;8.666;2022-08-19T06:35:33;21.50;99.90
5554;DHT22;2800;49.528;8.666;2022-08-19T06:38:03;21.50;99.90
5554;DHT22;2800;49.528;8.666;2022-08-19T06:40:30;21.50;99.90
5554;DHT22;2800;49.528;8.666;2022-08-19T06:42:56;21.50;99.90
5554;DHT22;2800;49.528;8.666;2022-08-19T06:45:23;21.40;99.90
5554;DHT22;2800;49.528;8.666;2022-08-19T06:47:49;21.50;99.90
5554;DHT22;2800;49.528;8.666;2022-08-19T06:50:15;21.60;99.90
5554;DHT22;2800;49.528;8.666;2022-08-19T06:52:40;21.80;99.90
5554;DHT22;2800;49.528;8.666;2022-08-19T06:55:06;21.90;99.90
5554;DHT22;2800;49.528;8.666;2022-08-19T06:57:33;21.90;99.90
5554;DHT22;2800;49.528;8.666;2022-08-19T06:59:59;22.00;99.90
5554;DHT22;2800;49.528;8.666;2022-08-19T07:02:25;22.10;99.90
5554;DHT22;2800;49.528;8.666;2022-08-19T07:04:52;22.10;99.90
5554;DHT22;2800;49.528;8.666;2022-08-19T07:07:19;22.20;99.90
5554;DHT22;2800;49.528;8.666;2022-08-19T07:09:46;22.30;99.90
5554;DHT22;2800;49.528;8.666;2022-08-19T07:12:13;22.30;99.90
5554;DHT22;2800;49.528;8.666;2022-08-19T07:14:41;22.30;99.90
5554;DHT22;2800;49.528;8.666;2022-08-19T07:17:10;22.40;99.90
5554;DHT22;2800;49.528;8.666;2022-08-19T07:19:38;22.70;99.90
5554;DHT22;2800;49.528;8.666;2022-08-19T07:22:06;22.90;99.90
5554;DHT22;2800;49.528;8.666;2022-08-19T07:24:32;23.00;99.90
5554;DHT22;2800;49.528;8.666;2022-08-19T07:27:00;23.00;99.90
5554;DHT22;2800;49.528;8.666;2022-08-19T07:29:29;22.90;99.90
5554;DHT22;2800;49.528;8.666;2022-08-19T07:31:56;22.90;99.90
5554;DHT22;2800;49.528;8.666;2022-08-19T07:34:23;23.00;99.90
5554;DHT22;2800;49.528;8.666;2022-08-19T07:36:49;23.00;99.90
5554;DHT22;2800;49.528;8.666;2022-08-19T07:39:22;23.00;99.90
5554;DHT22;2800;49.528;8.666;2022-08-19T07:41:48;23.20;99.90
5554;DHT22;2800;49.528;8.666;2022-08-19T07:44:15;23.30;99.90
5554;DHT22;2800;49.528;8.666;2022-08-19T07:46:45;23.80;99.90
5554;DHT22;2800;49.528;8.666;2022-08-19T07:49:12;24.10;99.90
5554;DHT22;2800;49.528;8.666;2022-08-19T07:51:47;24.20;99.90
5554;DHT22;2800;49.528;8.666;2022-08-19T07:54:13;23.90;99.90
5554;DHT22;2800;49.528;8.666;2022-08-19T07:56:39;23.70;99.90
5554;DHT22;2800;49.528;8.666;2022-08-19T07:59:05;23.50;99.90
5554;DHT22;2800;49.528;8.666;2022-08-19T08:01:31;23.50;99.90
5554;DHT22;2800;49.528;8.666;2022-08-19T08:03:57;23.50;99.90
5554;DHT22;2800;49.528;8.666;2022-08-19T08:06:41;23.60;99.90
5554;DHT22;2800;49.528;8.666;2022-08-19T08:09:35;23.60;99.90
5554;DHT22;2800;49.528;8.666;2022-08-19T08:12:08;24.10;99.90
5554;DHT22;2800;49.528;8.666;2022-08-19T08:14:39;24.90;99.90
5554;DHT22;2800;49.528;8.666;2022-08-19T08:17:07;25.20;99.90
5554;DHT22;2800;49.528;8.666;2022-08-19T08:19:32;24.90;99.90
5554;DHT22;2800;49.528;8.666;2022-08-19T08:21:59;24.90;99.90
5554;DHT22;2800;49.528;8.666;2022-08-19T08:24:27;24.80;99.90
5554;DHT22;2800;49.528;8.666;2022-08-19T08:26:53;24.90;99.90
5554;DHT22;2800;49.528;8.666;2022-08-19T08:29:19;25.50;99.90
5554;DHT22;2800;49.528;8.666;2022-08-19T08:31:46;26.10;99.90
5554;DHT22;2800;49.528;8.666;2022-08-19T08:34:13;26.20;99.90
5554;DHT22;2800;49.528;8.666;2022-08-19T08:36:40;26.40;99.90
5554;DHT22;2800;49.528;8.666;2022-08-19T08:39:09;26.50;99.90
5554;DHT22;2800;49.528;8.666;2022-08-19T08:44:15;26.80;99.90
5554;DHT22;2800;49.528;8.666;2022-08-19T08:46:55;27.00;99.90
5554;DHT22;2800;49.528;8.666;2022-08-19T08:49:31;26.90;99.90
5554;DHT22;2800;49.528;8.666;2022-08-19T08:52:06;27.00;99.90
5554;DHT22;2800;49.528;8.666;2022-08-19T08:54:53;27.10;99.90
5554;DHT22;2800;49.528;8.666;2022-08-19T08:59:54;26.70;99.90
5554;DHT22;2800;49.528;8.666;2022-08-19T09:02:22;26.60;99.90
5554;DHT22;2800;49.528;8.666;2022-08-19T09:04:47;26.50;99.90
5554;DHT22;2800;49.528;8.666;2022-08-19T09:07:39;26.50;99.90
5554;DHT22;2800;49.528;8.666;2022-08-19T09:15:37;26.50;99.90
5554;DHT22;2800;49.528;8.666;2022-08-19T09:18:04;27.00;99.90
5554;DHT22;2800;49.528;8.666;2022-08-19T09:20:31;27.20;99.90
5554;DHT22;2800;49.528;8.666;2022-08-19T09:22:57;27.60;99.90
5554;DHT22;2800;49.528;8.666;2022-08-19T09:25:24;27.80;99.90
5554;DHT22;2800;49.528;8.666;2022-08-19T09:27:51;28.10;99.90
5554;DHT22;2800;49.528;8.666;2022-08-19T09:30:24;28.10;99.90
5554;DHT22;2800;49.528;8.666;2022-08-19T09:32:51;28.40;99.90
5554;DHT22;2800;49.528;8.666;2022-08-19T09:35:21;28.40;99.90
5554;DHT22;2800;49.528;8.666;2022-08-19T09:37:48;28.20;99.90
5554;DHT22;2800;49.528;8.666;2022-08-19T09:40:15;28.60;99.90
5554;DHT22;2800;49.528;8.666;2022-08-19T09:42:42;28.60;99.90
5554;DHT22;2800;49.528;8.666;2022-08-19T09:45:09;28.60;99.90
5554;DHT22;2800;49.528;8.666;2022-08-19T09:47:35;28.60;99.90
5554;DHT22;2800;49.528;8.666;2022-08-19T09:50:04;28.90;99.90
5554;DHT22;2800;49.528;8.666;2022-08-19T09:52:31;29.20;99.90
5554;DHT22;2800;49.528;8.666;2022-08-19T09:54:56;28.80;99.90
5554;DHT22;2800;49.528;8.666;2022-08-19T09:57:22;29.40;99.90
5554;DHT22;2800;49.528;8.666;2022-08-19T09:59:47;29.30;99.90
5554;DHT22;2800;49.528;8.666;2022-08-19T10:02:13;29.70;99.90
5554;DHT22;2800;49.528;8.666;2022-08-19T10:04:39;29.80;99.90
5554;DHT22;2800;49.528;8.666;2022-08-19T10:07:23;29.80;99.90
5554;DHT22;2800;49.528;8.666;2022-08-19T10:09:48;29.40;99.90
5554;DHT22;2800;49.528;8.666;2022-08-19T10:12:14;29.30;99.90
5554;DHT22;2800;49.528;8.666;2022-08-19T10:14:40;29.60;99.90
5554;DHT22;2800;49.528;8.666;2022-08-19T10:17:06;29.40;99.90
5554;DHT22;2800;49.528;8.666;2022-08-19T10:19:32;29.80;99.90
5554;DHT22;2800;49.528;8.666;2022-08-19T10:22:04;29.80;99.90
5554;DHT22;2800;49.528;8.666;2022-08-19T10:24:30;29.60;99.90
5554;DHT22;2800;49.528;8.666;2022-08-19T10:26:56;29.90;99.90
5554;DHT22;2800;49.528;8.666;2022-08-19T10:29:22;30.40;99.90
5554;DHT22;2800;49.528;8.666;2022-08-19T10:31:47;30.70;99.90
5554;DHT22;2800;49.528;8.666;2022-08-19T10:34:13;31.20;99.90
5554;DHT22;2800;49.528;8.666;2022-08-19T10:36:39;32.00;99.90
5554;DHT22;2800;49.528;8.666;2022-08-19T10:39:07;31.30;99.90
5554;DHT22;2800;49.528;8.666;2022-08-19T10:41:36;31.20;99.90
5554;DHT22;2800;49.528;8.666;2022-08-19T10:44:07;31.10;99.90
5554;DHT22;2800;49.528;8.666;2022-08-19T10:46:36;30.10;99.90
5554;DHT22;2800;49.528;8.666;2022-08-19T10:49:03;29.20;99.90
5554;DHT22;2800;49.528;8.666;2022-08-19T10:51:30;29.10;99.90
5554;DHT22;2800;49.528;8.666;2022-08-19T10:54:15;29.60;99.90
5554;DHT22;2800;49.528;8.666;2022-08-19T10:56:40;30.30;99.90
5554;DHT22;2800;49.528;8.666;2022-08-19T10:59:25;30.70;99.90
5554;DHT22;2800;49.528;8.666;2022-08-19T11:01:53;31.30;99.90
5554;DHT22;2800;49.528;8.666;2022-08-19T11:04:20;32.10;99.90
5554;DHT22;2800;49.528;8.666;2022-08-19T11:06:47;32.50;99.90
5554;DHT22;2800;49.528;8.666;2022-08-19T11:09:19;32.60;99.90
5554;DHT22;2800;49.528;8.666;2022-08-19T11:11:45;30.90;99.90
5554;DHT22;2800;49.528;8.666;2022-08-19T11:14:15;30.40;99.90
5554;DHT22;2800;49.528;8.666;2022-08-19T11:16:43;30.80;99.90
5554;DHT22;2800;49.528;8.666;2022-08-19T11:19:10;31.10;99.90
5554;DHT22;2800;49.528;8.666;2022-08-19T11:21:42;31.80;99.90
5554;DHT22;2800;49.528;8.666;2022-08-19T11:24:15;32.20;99.90
5554;DHT22;2800;49.528;8.666;2022-08-19T11:26:42;32.40;99.90
5554;DHT22;2800;49.528;8.666;2022-08-19T11:29:10;32.50;99.90
5554;DHT22;2800;49.528;8.666;2022-08-19T11:31:37;32.80;99.90
5554;DHT22;2800;49.528;8.666;2022-08-19T11:34:06;33.10;99.90
5554;DHT22;2800;49.528;8.666;2022-08-19T11:36:32;32.70;99.90
5554;DHT22;2800;49.528;8.666;2022-08-19T11:38:58;31.70;99.90
5554;DHT22;2800;49.528;8.666;2022-08-19T11:41:25;31.10;99.90
5554;DHT22;2800;49.528;8.666;2022-08-19T11:43:52;31.30;99.90
5554;DHT22;2800;49.528;8.666;2022-08-19T11:46:22;31.80;99.90
5554;DHT22;2800;49.528;8.666;2022-08-19T11:48:48;32.10;99.90
5554;DHT22;2800;49.528;8.666;2022-08-19T11:51:19;31.80;99.90
5554;DHT22;2800;49.528;8.666;2022-08-19T11:53:45;31.60;99.90
5554;DHT22;2800;49.528;8.666;2022-08-19T11:56:11;32.00;99.90
5554;DHT22;2800;49.528;8.666;2022-08-19T11:58:38;32.20;99.90
5554;DHT22;2800;49.528;8.666;2022-08-19T12:01:10;31.90;99.90
5554;DHT22;2800;49.528;8.666;2022-08-19T12:03:38;31.80;99.90
5554;DHT22;2800;49.528;8.666;2022-08-19T12:06:16;32.30;99.90
5554;DHT22;2800;49.528;8.666;2022-08-19T12:08:43;32.30;99.90
5554;DHT22;2800;49.528;8.666;2022-08-19T12:11:10;32.90;99.90
5554;DHT22;2800;49.528;8.666;2022-08-19T12:13:37;33.30;99.90
5554;DHT22;2800;49.528;8.666;2022-08-19T12:16:08;33.30;99.90
5554;DHT22;2800;49.528;8.666;2022-08-19T12:18:36;33.40;99.90
5554;DHT22;2800;49.528;8.666;2022-08-19T12:21:02;32.00;99.90
5554;DHT22;2800;49.528;8.666;2022-08-19T12:23:28;31.20;99.90
5554;DHT22;2800;49.528;8.666;2022-08-19T12:25:54;30.90;99.90
5554;DHT22;2800;49.528;8.666;2022-08-19T12:28:21;31.70;99.90
5554;DHT22;2800;49.528;8.666;2022-08-19T12:30:48;31.60;99.90
5554;DHT22;2800;49.528;8.666;2022-08-19T12:33:15;32.30;99.90
5554;DHT22;2800;49.528;8.666;2022-08-19T12:35:42;32.90;99.90
5554;DHT22;2800;49.528;8.666;2022-08-19T12:38:08;32.20;99.90
5554;DHT22;2800;49.528;8.666;2022-08-19T12:40:33;30.60;99.90
5554;DHT22;2800;49.528;8.666;2022-08-19T12:42:59;30.70;99.90
5554;DHT22;2800;49.528;8.666;2022-08-19T12:45:24;31.70;99.90
5554;DHT22;2800;49.528;8.666;2022-08-19T12:47:50;31.80;99.90
5554;DHT22;2800;49.528;8.666;2022-08-19T12:50:18;32.20;99.90
5554;DHT22;2800;49.528;8.666;2022-08-19T12:52:43;33.10;99.90
5554;DHT22;2800;49.528;8.666;2022-08-19T12:55:09;34.70;99.90
5554;DHT22;2800;49.528;8.666;2022-08-19T12:57:36;35.40;99.90
5554;DHT22;2800;49.528;8.666;2022-08-19T13:00:10;35.80;99.90
5554;DHT22;2800;49.528;8.666;2022-08-19T13:02:38;35.80;99.90
5554;DHT22;2800;49.528;8.666;2022-08-19T13:05:08;35.90;99.90
5554;DHT22;2800;49.528;8.666;2022-08-19T13:07:34;36.40;99.90
5554;DHT22;2800;49.528;8.666;2022-08-19T13:10:00;36.50;99.90
5554;DHT22;2800;49.528;8.666;2022-08-19T13:12:25;36.50;99.90
5554;DHT22;2800;49.528;8.666;2022-08-19T13:14:52;36.70;99.90
5554;DHT22;2800;49.528;8.666;2022-08-19T13:17:18;35.90;99.90
5554;DHT22;2800;49.528;8.666;2022-08-19T13:19:44;34.60;99.90
5554;DHT22;2800;49.528;8.666;2022-08-19T13:22:09;35.30;99.90
5554;DHT22;2800;49.528;8.666;2022-08-19T13:24:35;34.90;99.90
5554;DHT22;2800;49.528;8.666;2022-08-19T13:27:02;35.40;99.90
5554;DHT22;2800;49.528;8.666;2022-08-19T13:29:27;35.40;99.90
5554;DHT22;2800;49.528;8.666;2022-08-19T13:32:12;35.70;99.90
5554;DHT22;2800;49.528;8.666;2022-08-19T13:34:56;35.40;99.90
5554;DHT22;2800;49.528;8.666;2022-08-19T13:37:21;35.60;99.90
5554;DHT22;2800;49.528;8.666;2022-08-19T13:40:18;35.80;99.90
5554;DHT22;2800;49.528;8.666;2022-08-19T13:42:46;35.80;99.90
5554;DHT22;2800;49.528;8.666;2022-08-19T13:45:14;35.00;99.90
5554;DHT22;2800;49.528;8.666;2022-08-19T13:47:41;36.00;99.90
5554;DHT22;2800;49.528;8.666;2022-08-19T13:50:10;34.60;99.90
5554;DHT22;2800;49.528;8.666;2022-08-19T13:52:37;33.40;99.90
5554;DHT22;2800;49.528;8.666;2022-08-19T13:55:03;32.90;99.90
5554;DHT22;2800;49.528;8.666;2022-08-19T13:57:30;32.00;99.90
5554;DHT22;2800;49.528;8.666;2022-08-19T13:59:57;31.60;99.90
5554;DHT22;2800;49.528;8.666;2022-08-19T14:02:23;31.70;99.90
5554;DHT22;2800;49.528;8.666;2022-08-19T14:04:48;31.80;99.90
5554;DHT22;2800;49.528;8.666;2022-08-19T14:07:14;31.30;99.90
5554;DHT22;2800;49.528;8.666;2022-08-19T14:09:39;31.40;99.90
5554;DHT22;2800;49.528;8.666;2022-08-19T14:12:06;31.70;99.90
5554;DHT22;2800;49.528;8.666;2022-08-19T14:14:31;31.30;99.90
5554;DHT22;2800;49.528;8.666;2022-08-19T14:16:57;31.70;99.90
5554;DHT22;2800;49.528;8.666;2022-08-19T14:19:23;32.40;99.90
5554;DHT22;2800;49.528;8.666;2022-08-19T14:21:48;33.20;99.90
5554;DHT22;2800;49.528;8.666;2022-08-19T14:24:14;33.70;99.90
5554;DHT22;2800;49.528;8.666;2022-08-19T14:26:39;34.10;99.90
5554;DHT22;2800;49.528;8.666;2022-08-19T14:29:05;34.20;99.90
5554;DHT22;2800;49.528;8.666;2022-08-19T14:31:31;34.20;99.90
5554;DHT22;2800;49.528;8.666;2022-08-19T14:33:56;34.20;99.90
5554;DHT22;2800;49.528;8.666;2022-08-19T14:36:22;34.80;99.90
5554;DHT22;2800;49.528;8.666;2022-08-19T14:38:48;34.90;99.90
5554;DHT22;2800;49.528;8.666;2022-08-19T14:41:19;34.30;99.90
5554;DHT22;2800;49.528;8.666;2022-08-19T14:43:47;34.40;99.90
5554;DHT22;2800;49.528;8.666;2022-08-19T14:46:15;34.60;99.90
5554;DHT22;2800;49.528;8.666;2022-08-19T14:48:41;34.20;99.90
5554;DHT22;2800;49.528;8.666;2022-08-19T14:51:07;34.10;99.90
5554;DHT22;2800;49.528;8.666;2022-08-19T14:53:33;34.20;99.90
5554;DHT22;2800;49.528;8.666;2022-08-19T14:55:59;34.40;99.90
5554;DHT22;2800;49.528;8.666;2022-08-19T14:58:25;34.40;99.90
5554;DHT22;2800;49.528;8.666;2022-08-19T15:00:50;34.40;99.90
5554;DHT22;2800;49.528;8.666;2022-08-19T15:03:16;33.90;99.90
5554;DHT22;2800;49.528;8.666;2022-08-19T15:05:42;33.30;99.90
5554;DHT22;2800;49.528;8.666;2022-08-19T15:08:07;33.20;99.90
5554;DHT22;2800;49.528;8.666;2022-08-19T15:10:33;33.20;99.90
5554;DHT22;2800;49.528;8.666;2022-08-19T15:12:59;33.30;99.90
5554;DHT22;2800;49.528;8.666;2022-08-19T15:15:24;33.30;99.90
5554;DHT22;2800;49.528;8.666;2022-08-19T15:17:50;33.00;99.90
5554;DHT22;2800;49.528;8.666;2022-08-19T15:20:18;32.80;99.90
5554;DHT22;2800;49.528;8.666;2022-08-19T15:22:44;32.70;99.90
5554;DHT22;2800;49.528;8.666;2022-08-19T15:25:12;32.50;99.90
5554;DHT22;2800;49.528;8.666;2022-08-19T15:27:38;32.50;99.90
5554;DHT22;2800;49.528;8.666;2022-08-19T15:30:06;32.60;99.90
5554;DHT22;2800;49.528;8.666;2022-08-19T15:32:32;32.40;99.90
5554;DHT22;2800;49.528;8.666;2022-08-19T15:34:58;31.90;99.90
5554;DHT22;2800;49.528;8.666;2022-08-19T15:37:23;31.70;99.90
5554;DHT22;2800;49.528;8.666;2022-08-19T15:39:49;31.50;99.90
5554;DHT22;2800;49.528;8.666;2022-08-19T15:42:15;31.20;99.90
5554;DHT22;2800;49.528;8.666;2022-08-19T15:44:40;30.80;99.90
5554;DHT22;2800;49.528;8.666;2022-08-19T15:47:06;31.00;99.90
5554;DHT22;2800;49.528;8.666;2022-08-19T15:49:31;30.90;99.90
5554;DHT22;2800;49.528;8.666;2022-08-19T15:51:57;30.60;99.90
5554;DHT22;2800;49.528;8.666;2022-08-19T15:54:24;30.60;99.90
5554;DHT22;2800;49.528;8.666;2022-08-19T15:56:51;30.40;99.90
5554;DHT22;2800;49.528;8.666;2022-08-19T15:59:37;30.40;99.90
5554;DHT22;2800;49.528;8.666;2022-08-19T16:02:24;30.20;99.90
5554;DHT22;2800;49.528;8.666;2022-08-19T16:05:17;30.10;99.90
5554;DHT22;2800;49.528;8.666;2022-08-19T16:08:02;30.10;99.90
5554;DHT22;2800;49.528;8.666;2022-08-19T16:10:28;30.10;99.90
5554;DHT22;2800;49.528;8.666;2022-08-19T16:12:55;29.90;99.90
5554;DHT22;2800;49.528;8.666;2022-08-19T16:15:21;29.80;99.90
5554;DHT22;2800;49.528;8.666;2022-08-19T16:17:47;29.60;99.90